Time;durP1;ratioP1;P1;durP2;ratioP2;P2;SDS_P1;SDS_P2;PMS_P1;PMS_P2;Temp;Humidity;BMP_temperature;BMP_pressure;BME280_temperature;BME280_humidity;BME280_pressure;Samples;Min_cycle;Max_cycle;Signal;HPM_P1;HPM_P2
2022/01/18 00:01:18;;;;;;;1.03;1.03;;;7.10;99.90;;;;;;6209807;23;20190;-91
2022/01/18 00:03:44;;;;;;;3.63;1.93;;;7.10;99.90;;;;;;6160613;23;20246;-90
2022/01/18 00:06:10;;;;;;;8.07;2.03;;;7.00;99.90;;;;;;6160988;23;20216;-91
2022/01/18 00:08:36;;;;;;;8.43;1.33;;;7.00;99.90;;;;;;6160504;23;20268;-91
2022/01/18 00:11:02;;;;;;;3.47;1.17;;;7.00;99.90;;;;;;6160697;23;20213;-91
2022/01/18 00:18:22;;;;;;;1.37;1.33;;;7.10;99.90;;;;;;6186284;23;20495;-91
2022/01/18 00:23:22;;;;;;;1.50;1.37;;;7.10;99.90;;;;;;6211860;23;20205;-90
2022/01/18 00:25:52;;;;;;;1.13;1.03;;;7.00;99.90;;;;;;6161539;23;20272;-91
2022/01/18 00:28:19;;;;;;;0.67;0.67;;;7.00;99.90;;;;;;6163189;23;20194;-91
2022/01/18 00:33:49;;;;;;;2.97;1.83;;;7.00;99.90;;;;;;6212642;23;20142;-90
2022/01/18 00:36:26;;;;;;;1.00;0.47;;;7.00;99.90;;;;;;6191054;23;20562;-91
2022/01/18 00:38:53;;;;;;;14.57;1.77;;;7.00;99.90;;;;;;6188744;23;20193;-91
2022/01/18 00:41:23;;;;;;;1.33;1.33;;;7.00;99.90;;;;;;6210773;23;20194;-91
2022/01/18 00:43:49;;;;;;;4.87;1.07;;;6.90;99.90;;;;;;6210103;23;20276;-92
2022/01/18 00:46:15;;;;;;;0.30;0.30;;;6.90;99.90;;;;;;6209955;23;20214;-91
2022/01/18 00:48:42;;;;;;;2.43;0.70;;;6.90;99.90;;;;;;6185415;23;20190;-92
2022/01/18 00:51:12;;;;;;;3.70;1.50;;;6.90;99.90;;;;;;6185815;23;20178;-92
2022/01/18 00:53:39;;;;;;;3.00;0.73;;;6.90;99.90;;;;;;6185571;23;20194;-92
2022/01/18 00:58:43;;;;;;;0.30;0.30;;;6.90;99.90;;;;;;6212247;23;20194;-92
2022/01/18 01:01:11;;;;;;;1.37;1.27;;;6.90;99.90;;;;;;6210861;23;21071;-92
2022/01/18 01:03:38;;;;;;;2.67;0.70;;;6.90;99.90;;;;;;6161246;23;20558;-92
2022/01/18 01:06:06;;;;;;;0.30;0.30;;;6.90;99.90;;;;;;6186494;23;20236;-91
2022/01/18 01:08:36;;;;;;;0.30;0.30;;;6.90;99.90;;;;;;6209940;23;20301;-92
2022/01/18 01:11:05;;;;;;;2.17;1.70;;;6.80;99.90;;;;;;6210359;23;20284;-92
2022/01/18 01:13:32;;;;;;;3.03;2.23;;;6.90;99.90;;;;;;6210395;23;20714;-92
2022/01/18 01:43:24;;;;;;;7.00;1.90;;;6.80;99.90;;;;;;6188459;23;20277;-92
2022/01/18 01:45:51;;;;;;;3.20;2.17;;;6.80;99.90;;;;;;6186159;23;20699;-92
2022/01/18 01:48:19;;;;;;;1.63;1.23;;;6.90;99.90;;;;;;6185320;23;20245;-91
2022/01/18 01:50:50;;;;;;;1.67;0.77;;;6.80;99.90;;;;;;6209632;23;20315;-91
2022/01/18 01:53:18;;;;;;;0.50;0.50;;;6.80;99.90;;;;;;6209670;23;20304;-91
2022/01/18 01:55:46;;;;;;;1.93;0.73;;;6.90;99.90;;;;;;6184494;23;20281;-92
2022/01/18 01:58:12;;;;;;;0.50;0.50;;;7.00;99.90;;;;;;6210259;23;20272;-92
2022/01/18 02:00:48;;;;;;;6.60;0.83;;;7.00;99.90;;;;;;6161107;23;20241;-91
2022/01/18 02:03:14;;;;;;;1.17;1.03;;;7.00;99.90;;;;;;6210526;23;20225;-91
2022/01/18 02:05:41;;;;;;;2.10;1.90;;;7.00;99.90;;;;;;6185170;23;20340;-92
2022/01/18 02:08:07;;;;;;;2.70;1.90;;;7.10;99.90;;;;;;6185573;23;20690;-92
2022/01/18 02:10:34;;;;;;;0.67;0.67;;;7.10;99.90;;;;;;6185296;23;20273;-92
2022/01/18 02:13:01;;;;;;;1.50;1.40;;;7.20;99.90;;;;;;6210082;23;20277;-91
2022/01/18 02:15:27;;;;;;;0.20;0.20;;;7.20;99.90;;;;;;6185341;23;20602;-91
2022/01/18 02:23:27;;;;;;;0.33;0.33;;;7.20;99.90;;;;;;6211001;23;20947;-92
2022/01/18 02:25:54;;;;;;;0.50;0.50;;;7.20;99.90;;;;;;6184980;23;20269;-91
2022/01/18 02:28:22;;;;;;;2.50;2.40;;;7.30;99.90;;;;;;6185704;23;20255;-92
2022/01/18 02:30:49;;;;;;;31.97;1.80;;;7.40;99.90;;;;;;6185356;23;20642;-90
2022/01/18 02:33:15;;;;;;;0.20;0.20;;;7.50;99.90;;;;;;6211061;23;20302;-92
2022/01/18 02:35:41;;;;;;;1.03;0.20;;;7.70;99.90;;;;;;6160290;23;20288;-90
2022/01/18 02:38:07;;;;;;;2.27;1.67;;;7.70;99.90;;;;;;6184684;23;20265;-92
2022/01/18 02:40:34;;;;;;;1.70;0.40;;;7.70;99.90;;;;;;6185379;23;20201;-91
2022/01/18 02:43:46;;;;;;;1.43;0.27;;;7.60;99.90;;;;;;6159928;23;20277;-91
2022/01/18 02:45:55;;;;;;;0.67;0.67;;;7.60;99.90;;;;;;6211264;23;20360;-91
2022/01/18 02:48:22;;;;;;;0.20;0.20;;;7.50;99.90;;;;;;6185524;23;20229;-91
2022/01/18 02:50:48;;;;;;;1.40;1.37;;;7.70;99.90;;;;;;6185178;23;20257;-91
2022/01/18 02:53:16;;;;;;;0.50;0.50;;;7.70;99.90;;;;;;6208870;23;20261;-91
2022/01/18 02:55:48;;;;;;;0.67;0.67;;;7.70;99.90;;;;;;6208531;23;20268;-92
2022/01/18 02:58:21;;;;;;;3.93;1.10;;;7.60;99.90;;;;;;6208901;23;20269;-91
2022/01/18 03:03:32;;;;;;;0.97;0.40;;;7.40;99.90;;;;;;6188393;23;20276;-91
2022/01/18 03:06:00;;;;;;;3.40;0.30;;;7.40;99.90;;;;;;6210342;23;20236;-92
2022/01/18 03:08:28;;;;;;;2.13;0.87;;;7.30;99.90;;;;;;6212751;23;20278;-91
2022/01/18 03:10:54;;;;;;;1.50;0.97;;;7.10;99.90;;;;;;6186830;23;20296;-91
2022/01/18 03:13:21;;;;;;;0.30;0.30;;;7.00;99.90;;;;;;6211543;23;20272;-91
2022/01/18 03:15:47;;;;;;;0.20;0.20;;;6.90;99.90;;;;;;6162431;23;20615;-92
2022/01/18 03:18:13;;;;;;;0.43;0.43;;;6.90;99.90;;;;;;6212907;23;20210;-91
2022/01/18 03:20:40;;;;;;;1.50;0.60;;;6.90;99.90;;;;;;6186979;23;20273;-91
2022/01/18 03:23:11;;;;;;;5.70;0.90;;;6.90;99.90;;;;;;6211833;23;20281;-92
2022/01/18 03:28:06;;;;;;;3.33;1.50;;;7.10;99.90;;;;;;6211581;23;20195;-90
2022/01/18 03:30:34;;;;;;;1.87;1.00;;;7.10;99.90;;;;;;6211534;23;20236;-91
2022/01/18 03:33:01;;;;;;;0.77;0.77;;;7.10;99.90;;;;;;6187092;23;20248;-91
2022/01/18 03:35:27;;;;;;;20.27;1.17;;;7.10;99.90;;;;;;6186299;23;20323;-91
2022/01/18 03:37:53;;;;;;;0.20;0.20;;;7.10;99.90;;;;;;6186238;23;20250;-91
2022/01/18 03:40:22;;;;;;;1.40;0.60;;;7.10;99.90;;;;;;6186095;23;20274;-91
2022/01/18 03:42:49;;;;;;;1.33;0.77;;;7.20;99.90;;;;;;6186235;23;20377;-92
2022/01/18 03:45:25;;;;;;;4.90;0.97;;;7.20;99.90;;;;;;6212137;23;20241;-92
2022/01/18 03:47:54;;;;;;;2.13;0.60;;;7.30;99.90;;;;;;6209517;23;20563;-91
2022/01/18 03:50:20;;;;;;;3.53;1.80;;;7.40;99.90;;;;;;6186611;23;20277;-91
2022/01/18 03:52:46;;;;;;;7.40;1.00;;;7.40;99.90;;;;;;6161599;23;20726;-91
2022/01/18 03:55:14;;;;;;;2.20;2.10;;;7.40;99.90;;;;;;6186104;23;20268;-91
2022/01/18 03:57:40;;;;;;;0.50;0.50;;;7.50;99.90;;;;;;6211673;23;20277;-91
2022/01/18 04:00:11;;;;;;;1.57;0.77;;;7.60;99.90;;;;;;6162805;23;20236;-92
2022/01/18 04:02:37;;;;;;;1.37;1.27;;;7.60;99.90;;;;;;6211129;23;20264;-91
2022/01/18 04:05:03;;;;;;;4.70;1.07;;;7.60;99.90;;;;;;6161212;23;20703;-92
2022/01/18 04:07:29;;;;;;;1.07;0.67;;;7.60;99.90;;;;;;6185935;23;20233;-91
2022/01/18 04:09:56;;;;;;;0.57;0.57;;;7.70;99.90;;;;;;6186723;23;20197;-91
2022/01/18 04:12:22;;;;;;;12.93;1.03;;;7.80;99.90;;;;;;6186604;23;20233;-91
2022/01/18 04:14:47;;;;;;;0.30;0.30;;;7.80;99.90;;;;;;6185758;23;20635;-91
2022/01/18 04:17:33;;;;;;;4.17;1.20;;;7.90;99.90;;;;;;6186301;23;20206;-91
2022/01/18 04:30:53;;;;;;;1.57;0.60;;;7.80;99.90;;;;;;6211790;23;20273;-91
2022/01/18 04:33:19;;;;;;;2.20;0.97;;;7.70;99.90;;;;;;6212461;23;20244;-91
2022/01/18 04:35:45;;;;;;;0.47;0.40;;;7.80;99.90;;;;;;6185941;23;20261;-91
2022/01/18 04:38:12;;;;;;;2.90;1.00;;;7.80;99.90;;;;;;6185975;23;20197;-91
2022/01/18 04:40:41;;;;;;;3.87;2.60;;;7.90;99.90;;;;;;6161381;23;20269;-92
2022/01/18 04:48:30;;;;;;;0.57;0.57;;;7.90;99.90;;;;;;6190434;23;20229;-91
2022/01/18 04:51:00;;;;;;;0.40;0.40;;;7.80;99.90;;;;;;6210676;23;20523;-91
2022/01/18 04:53:30;;;;;;;0.60;0.50;;;7.80;99.90;;;;;;6186441;23;20277;-91
2022/01/18 04:55:59;;;;;;;1.20;1.10;;;7.70;99.90;;;;;;6210672;23;20734;-91
2022/01/18 04:58:26;;;;;;;1.30;1.20;;;7.70;99.90;;;;;;6186245;23;20269;-91
2022/01/18 05:00:56;;;;;;;1.37;1.37;;;7.80;99.90;;;;;;6210913;23;20264;-91
2022/01/18 05:03:22;;;;;;;5.73;1.33;;;7.80;99.90;;;;;;6211821;23;20241;-91
2022/01/18 05:05:49;;;;;;;8.70;1.47;;;7.80;99.90;;;;;;6161494;23;20365;-91
2022/01/18 05:08:16;;;;;;;5.40;1.67;;;7.80;99.90;;;;;;6210250;23;20269;-92
2022/01/18 05:10:43;;;;;;;1.03;1.03;;;7.70;99.90;;;;;;6210113;23;20269;-91
2022/01/18 05:16:55;;;;;;;1.23;1.23;;;7.80;99.90;;;;;;6164680;23;20232;-91
2022/01/18 05:19:04;;;;;;;7.13;1.00;;;7.70;99.90;;;;;;6193316;23;20241;-92
2022/01/18 05:21:36;;;;;;;2.57;1.00;;;7.70;99.90;;;;;;6188731;23;20506;-91
2022/01/18 05:24:02;;;;;;;0.40;0.40;;;7.70;99.90;;;;;;6212047;23;20221;-92
2022/01/18 05:26:29;;;;;;;5.40;1.87;;;7.60;99.90;;;;;;6211061;23;20300;-92
2022/01/18 05:28:57;;;;;;;14.90;1.63;;;7.60;99.90;;;;;;6209706;23;20285;-90
2022/01/18 05:31:24;;;;;;;8.10;1.03;;;7.70;99.90;;;;;;6185516;23;20280;-91
2022/01/18 05:33:50;;;;;;;0.97;0.50;;;7.70;99.90;;;;;;6186707;23;20292;-89
2022/01/18 05:36:48;;;;;;;;;;;;;;;;;;;;;
2022/01/18 05:39:14;;;;;;;3.53;2.63;;;7.70;99.90;;;;;;6210331;23;20454;-89
2022/01/18 05:41:43;;;;;;;3.17;1.03;;;7.70;99.90;;;;;;6208995;23;20292;-90
2022/01/18 05:44:09;;;;;;;1.17;1.17;;;7.80;99.90;;;;;;6209727;23;20277;-90
2022/01/18 05:46:35;;;;;;;2.03;1.60;;;7.80;99.90;;;;;;6185046;23;20723;-90
2022/01/18 05:49:02;;;;;;;2.37;1.80;;;7.80;99.90;;;;;;6184365;23;20229;-90
2022/01/18 05:51:29;;;;;;;1.00;1.00;;;7.80;99.90;;;;;;6184135;23;20245;-90
2022/01/18 05:53:55;;;;;;;21.50;2.83;;;7.80;99.90;;;;;;6185344;23;20237;-89
2022/01/18 05:56:21;;;;;;;2.67;1.87;;;7.80;99.90;;;;;;6184564;23;20667;-91
2022/01/18 05:58:48;;;;;;;7.00;2.37;;;7.80;99.90;;;;;;6184429;23;20190;-90
2022/01/18 06:01:25;;;;;;;5.10;1.93;;;7.80;99.90;;;;;;6185092;23;20293;-90
2022/01/18 06:04:10;;;;;;;12.67;2.67;;;7.80;99.90;;;;;;6163796;23;20276;-90
2022/01/18 06:06:54;;;;;;;0.83;0.80;;;7.80;99.90;;;;;;6208990;23;20265;-90
2022/01/18 06:09:22;;;;;;;1.97;1.87;;;7.80;99.90;;;;;;6210797;23;20217;-90
2022/01/18 06:11:49;;;;;;;9.00;2.50;;;7.80;99.90;;;;;;6159704;23;20583;-90
2022/01/18 06:14:16;;;;;;;4.93;3.57;;;7.80;99.90;;;;;;6184400;23;20575;-90
2022/01/18 06:16:47;;;;;;;4.47;2.03;;;7.70;99.90;;;;;;6208855;23;20205;-90
2022/01/18 06:19:16;;;;;;;6.33;4.40;;;7.70;99.90;;;;;;6184951;23;20293;-92
2022/01/18 06:21:42;;;;;;;17.77;2.33;;;7.60;99.90;;;;;;6184765;23;20619;-89
2022/01/18 06:24:09;;;;;;;12.03;4.70;;;7.60;99.90;;;;;;6209912;23;20162;-90
2022/01/18 06:26:35;;;;;;;27.03;2.40;;;7.60;99.90;;;;;;6160213;23;20289;-91
2022/01/18 06:29:02;;;;;;;1.30;1.20;;;7.60;99.90;;;;;;6209689;23;20542;-91
2022/01/18 06:31:28;;;;;;;12.43;1.37;;;7.60;99.90;;;;;;6160702;23;20571;-90
2022/01/18 06:33:57;;;;;;;1.77;1.63;;;7.50;99.90;;;;;;6170767;23;20583;-90
2022/01/18 06:36:23;;;;;;;1.70;1.50;;;7.50;99.90;;;;;;6187149;23;20192;-90
2022/01/18 06:38:49;;;;;;;1.53;1.43;;;7.50;99.90;;;;;;6184396;23;20276;-91
2022/01/18 06:41:15;;;;;;;15.43;2.90;;;7.50;99.90;;;;;;6184210;23;20678;-91
2022/01/18 06:43:41;;;;;;;1.93;1.70;;;7.50;99.90;;;;;;6159874;23;20212;-90
2022/01/18 06:46:07;;;;;;;2.97;2.60;;;7.50;99.90;;;;;;6159975;23;20221;-91
2022/01/18 06:48:33;;;;;;;0.77;0.67;;;7.40;99.90;;;;;;6159300;23;20181;-89
2022/01/18 06:50:59;;;;;;;1.80;1.70;;;7.40;99.90;;;;;;6185447;23;20241;-90
2022/01/18 06:53:31;;;;;;;1.47;1.27;;;7.30;99.90;;;;;;6159392;23;20202;-90
2022/01/18 06:55:57;;;;;;;2.13;1.43;;;7.20;99.90;;;;;;6162218;23;20277;-90
2022/01/18 06:58:23;;;;;;;3.63;3.37;;;7.20;99.90;;;;;;6208732;23;20585;-89
2022/01/18 07:00:49;;;;;;;0.40;0.40;;;7.10;99.90;;;;;;6183854;23;20261;-91
2022/01/18 07:03:17;;;;;;;0.60;0.60;;;7.10;99.90;;;;;;6184737;23;20162;-90
2022/01/18 07:05:43;;;;;;;0.63;0.63;;;7.00;99.90;;;;;;6184736;23;20222;-90
2022/01/18 07:08:08;;;;;;;1.07;1.07;;;6.90;99.90;;;;;;6159255;23;20256;-90
2022/01/18 07:10:34;;;;;;;4.70;4.17;;;6.90;99.90;;;;;;6184682;23;20273;-91
2022/01/18 07:13:01;;;;;;;1.10;1.07;;;6.90;99.90;;;;;;6184674;23;20198;-90
2022/01/18 07:15:27;;;;;;;1.93;0.63;;;6.90;99.90;;;;;;6160704;23;20170;-91
2022/01/18 07:17:52;;;;;;;0.67;0.60;;;6.90;99.90;;;;;;6159506;23;20202;-89
2022/01/18 07:20:18;;;;;;;0.73;0.73;;;6.80;99.90;;;;;;6183143;23;20229;-89
2022/01/18 07:22:44;;;;;;;0.90;0.90;;;6.80;99.90;;;;;;6158172;23;20205;-92
2022/01/18 07:25:12;;;;;;;1.13;1.13;;;6.80;99.90;;;;;;6182439;23;20208;-88
2022/01/18 07:27:38;;;;;;;2.50;2.13;;;6.80;99.90;;;;;;6206863;23;20162;-87
2022/01/18 07:30:04;;;;;;;0.90;0.90;;;6.80;99.90;;;;;;6183442;23;20555;-89
2022/01/18 07:32:30;;;;;;;2.93;1.50;;;6.80;99.90;;;;;;6183148;23;20198;-89
2022/01/18 07:34:57;;;;;;;12.33;10.10;;;6.80;99.90;;;;;;6157893;23;20233;-91
2022/01/18 07:37:23;;;;;;;27.93;20.33;;;6.80;99.90;;;;;;6158757;23;20202;-88
2022/01/18 07:39:51;;;;;;;9.80;6.63;;;6.80;99.90;;;;;;6157964;23;20206;-89
2022/01/18 07:42:18;;;;;;;6.43;5.20;;;6.80;99.90;;;;;;6183236;23;20209;-89
2022/01/18 07:44:44;;;;;;;0.97;0.97;;;6.80;99.90;;;;;;6182253;23;20541;-90
2022/01/18 07:47:10;;;;;;;1.27;1.20;;;6.70;99.90;;;;;;6157620;23;20206;-88
2022/01/18 07:49:36;;;;;;;1.70;1.60;;;6.70;99.90;;;;;;6182587;23;20201;-89
2022/01/18 07:52:02;;;;;;;1.80;1.70;;;6.70;99.90;;;;;;6208487;23;20192;-88
2022/01/18 07:54:27;;;;;;;1.03;0.93;;;6.70;99.90;;;;;;6185126;23;20163;-88
2022/01/18 07:56:53;;;;;;;0.77;0.77;;;6.60;99.90;;;;;;6185014;23;20206;-89
2022/01/18 07:59:20;;;;;;;0.80;0.80;;;6.60;99.90;;;;;;6184422;23;20198;-89
2022/01/18 08:01:46;;;;;;;0.53;0.53;;;6.60;99.90;;;;;;6159796;23;20844;-88
2022/01/18 08:04:12;;;;;;;0.97;0.97;;;6.60;99.90;;;;;;6184337;23;20196;-89
2022/01/18 08:06:38;;;;;;;1.03;1.03;;;6.60;99.90;;;;;;6209496;23;20516;-89
2022/01/18 08:09:04;;;;;;;6.80;0.80;;;6.60;99.90;;;;;;6210491;23;20607;-91
2022/01/18 08:11:30;;;;;;;1.00;1.00;;;6.60;99.90;;;;;;6184088;23;20230;-90
2022/01/18 08:13:57;;;;;;;1.53;1.43;;;6.60;99.90;;;;;;6159650;23;20202;-88
2022/01/18 08:18:50;;;;;;;0.60;0.60;;;6.50;99.90;;;;;;6209487;23;20270;-87
2022/01/18 08:21:17;;;;;;;3.57;1.20;;;6.50;99.90;;;;;;6185269;23;20150;-90
2022/01/18 08:23:42;;;;;;;1.97;1.87;;;6.50;99.90;;;;;;6209460;23;20197;-91
2022/01/18 08:26:08;;;;;;;6.30;2.97;;;6.60;99.90;;;;;;6159524;23;20714;-89
2022/01/18 08:28:34;;;;;;;0.97;0.97;;;6.50;99.90;;;;;;6160336;23;20205;-90
2022/01/18 08:31:00;;;;;;;1.33;1.23;;;6.50;99.90;;;;;;6184444;23;20280;-89
2022/01/18 08:33:25;;;;;;;1.87;0.80;;;6.50;99.90;;;;;;6185430;23;20581;-89
2022/01/18 08:35:52;;;;;;;0.90;0.90;;;6.50;99.90;;;;;;6184261;23;20529;-89
2022/01/18 08:38:18;;;;;;;1.03;1.03;;;6.60;99.90;;;;;;6183960;23;20224;-89
2022/01/18 08:40:43;;;;;;;2.67;1.27;;;6.60;99.90;;;;;;6184191;23;20198;-89
2022/01/18 08:43:10;;;;;;;0.90;0.90;;;6.60;99.90;;;;;;6158326;23;20232;-87
2022/01/18 08:45:36;;;;;;;1.03;1.03;;;6.60;99.90;;;;;;6208726;23;20173;-89
2022/01/18 08:48:02;;;;;;;6.37;1.20;;;6.50;99.90;;;;;;6209631;23;20154;-90
2022/01/18 08:50:28;;;;;;;0.57;0.57;;;6.50;99.90;;;;;;6208602;23;20285;-89
2022/01/18 08:52:54;;;;;;;0.50;0.50;;;6.50;99.90;;;;;;6183842;23;21056;-90
2022/01/18 08:55:20;;;;;;;0.70;0.70;;;6.60;99.90;;;;;;6159306;23;20201;-89
2022/01/18 08:57:46;;;;;;;1.10;0.70;;;6.60;99.90;;;;;;6183748;23;20527;-88
2022/01/18 09:00:15;;;;;;;0.47;0.47;;;6.60;99.90;;;;;;6160054;23;20602;-89
2022/01/18 09:02:41;;;;;;;0.30;0.30;;;6.60;99.90;;;;;;6208108;23;20224;-89
2022/01/18 09:05:08;;;;;;;1.30;0.77;;;6.70;99.90;;;;;;6207867;23;20574;-89
2022/01/18 09:07:36;;;;;;;0.97;0.97;;;6.60;99.90;;;;;;6198849;23;20270;-89
2022/01/18 09:10:06;;;;;;;0.50;0.50;;;6.60;99.90;;;;;;6184312;23;20190;-89
2022/01/18 09:12:32;;;;;;;0.60;0.60;;;6.70;99.90;;;;;;6160887;23;20584;-89
2022/01/18 09:15:04;;;;;;;0.73;0.73;;;6.80;99.90;;;;;;6209625;23;20165;-89
2022/01/18 09:17:30;;;;;;;0.43;0.43;;;6.80;99.90;;;;;;6208723;23;20225;-89
2022/01/18 09:19:56;;;;;;;23.93;1.10;;;6.80;99.90;;;;;;6183666;23;20217;-89
2022/01/18 09:22:22;;;;;;;4.23;1.37;;;6.90;99.90;;;;;;6208635;23;20198;-90
2022/01/18 09:24:48;;;;;;;1.60;1.50;;;6.90;99.90;;;;;;6158626;23;20197;-89
2022/01/18 09:27:15;;;;;;;12.57;0.70;;;7.00;99.90;;;;;;6183848;23;20158;-90
2022/01/18 09:29:41;;;;;;;0.97;0.93;;;7.00;99.90;;;;;;6159596;23;20194;-89
2022/01/18 09:32:08;;;;;;;0.43;0.43;;;7.10;99.90;;;;;;6158740;23;20216;-88
2022/01/18 09:34:34;;;;;;;0.77;0.53;;;7.20;99.90;;;;;;6208290;23;20253;-89
2022/01/18 09:37:00;;;;;;;5.90;2.33;;;7.20;99.90;;;;;;6183363;23;20209;-88
2022/01/18 09:39:27;;;;;;;20.20;3.50;;;7.40;99.90;;;;;;6210696;23;20162;-89
2022/01/18 09:41:55;;;;;;;10.27;8.17;;;7.50;99.90;;;;;;6183308;23;20297;-88
2022/01/18 09:44:21;;;;;;;4.17;2.17;;;7.40;99.90;;;;;;6183304;23;20289;-88
2022/01/18 09:46:50;;;;;;;4.37;4.07;;;7.40;99.90;;;;;;6158311;23;20508;-89
2022/01/18 09:49:17;;;;;;;2.57;2.27;;;7.40;99.90;;;;;;6179460;23;20197;-89
2022/01/18 09:51:43;;;;;;;16.13;10.70;;;7.50;99.90;;;;;;6183072;23;20162;-88
2022/01/18 09:54:09;;;;;;;19.10;3.23;;;7.50;99.90;;;;;;6209042;23;20803;-88
2022/01/18 09:56:36;;;;;;;15.60;3.87;;;7.70;99.90;;;;;;6182925;23;20237;-88
2022/01/18 09:59:02;;;;;;;5.20;4.87;;;7.80;99.90;;;;;;6208206;23;20198;-88
2022/01/18 10:01:29;;;;;;;3.10;2.57;;;7.70;99.90;;;;;;6183307;23;20189;-88
2022/01/18 10:04:30;;;;;;;2.07;1.97;;;7.80;99.90;;;;;;6183417;23;20209;-88
2022/01/18 10:06:57;;;;;;;2.07;1.17;;;7.70;99.90;;;;;;6182729;23;20525;-89
2022/01/18 10:09:24;;;;;;;2.07;1.93;;;7.80;99.90;;;;;;6208317;23;20165;-88
2022/01/18 10:12:10;;;;;;;1.47;1.37;;;7.80;99.90;;;;;;6207864;23;20538;-89
2022/01/18 10:14:52;;;;;;;0.90;0.90;;;7.90;99.90;;;;;;6207980;23;20197;-88
2022/01/18 10:17:28;;;;;;;1.87;1.50;;;7.90;99.90;;;;;;6209031;23;20198;-88
2022/01/18 10:19:54;;;;;;;1.53;1.43;;;7.80;99.90;;;;;;6208039;23;20643;-88
2022/01/18 10:22:25;;;;;;;0.53;0.53;;;7.90;99.90;;;;;;6182313;23;20194;-88
2022/01/18 10:24:52;;;;;;;1.37;1.27;;;7.90;99.90;;;;;;6207708;23;20240;-88
2022/01/18 10:27:18;;;;;;;1.40;1.03;;;8.00;99.90;;;;;;6183540;23;20170;-88
2022/01/18 10:29:48;;;;;;;0.97;0.80;;;8.00;99.90;;;;;;6207026;23;20205;-88
2022/01/18 10:32:22;;;;;;;0.57;0.40;;;8.20;99.90;;;;;;6208011;23;20225;-88
2022/01/18 10:37:18;;;;;;;1.37;1.07;;;8.30;99.90;;;;;;6209042;23;20728;-89
2022/01/18 10:39:54;;;;;;;1.40;1.13;;;8.30;99.90;;;;;;6207924;23;20524;-88
2022/01/18 10:42:21;;;;;;;0.30;0.30;;;8.30;99.90;;;;;;6208233;23;20194;-88
2022/01/18 10:44:48;;;;;;;3.97;2.27;;;8.20;99.90;;;;;;6208970;23;20252;-88
2022/01/18 10:47:17;;;;;;;20.30;3.43;;;8.20;99.90;;;;;;6207668;23;20278;-90
2022/01/18 10:49:47;;;;;;;1.27;1.17;;;8.20;99.90;;;;;;6207906;23;20578;-89
2022/01/18 10:52:24;;;;;;;1.23;1.23;;;8.20;99.90;;;;;;6209339;23;20248;-89
2022/01/18 10:54:57;;;;;;;3.60;2.90;;;8.20;99.90;;;;;;6207978;23;20189;-88
2022/01/18 10:57:36;;;;;;;2.40;1.83;;;8.30;99.90;;;;;;6159210;23;20493;-89
2022/01/18 11:00:22;;;;;;;1.70;1.37;;;8.10;99.90;;;;;;6207558;23;20178;-88
2022/01/18 11:02:51;;;;;;;0.87;0.87;;;8.00;99.90;;;;;;6209186;23;20194;-87
2022/01/18 11:05:19;;;;;;;3.10;1.97;;;8.10;99.90;;;;;;6207678;23;20202;-88
2022/01/18 11:07:47;;;;;;;2.47;2.13;;;8.10;99.90;;;;;;6207365;23;20198;-88
2022/01/18 11:10:14;;;;;;;3.53;2.07;;;8.10;99.90;;;;;;6182117;23;20247;-88
2022/01/18 11:13:01;;;;;;;3.80;3.30;;;8.10;99.90;;;;;;6182981;23;20166;-88
2022/01/18 11:15:28;;;;;;;7.43;6.17;;;8.10;99.90;;;;;;6207972;23;20138;-89
2022/01/18 11:17:58;;;;;;;12.83;2.33;;;8.10;99.90;;;;;;6207112;23;20194;-88
2022/01/18 11:20:28;;;;;;;8.40;1.90;;;8.00;99.90;;;;;;6207617;23;20197;-88
2022/01/18 11:22:53;;;;;;;4.47;2.93;;;7.90;99.90;;;;;;6207265;23;20193;-88
2022/01/18 11:25:20;;;;;;;5.27;2.03;;;7.90;99.90;;;;;;6157752;23;20273;-89
2022/01/18 11:27:50;;;;;;;2.40;2.20;;;8.00;99.90;;;;;;6184834;23;20166;-88
2022/01/18 11:30:19;;;;;;;3.03;2.40;;;8.10;99.90;;;;;;6210876;23;20560;-87
2022/01/18 11:32:45;;;;;;;2.43;1.90;;;8.10;99.90;;;;;;6209517;23;20204;-90
2022/01/18 11:35:13;;;;;;;2.57;1.50;;;8.00;99.90;;;;;;6184409;23;20236;-89
2022/01/18 11:37:45;;;;;;;8.47;3.57;;;7.90;99.90;;;;;;6209292;23;20214;-90
2022/01/18 11:40:17;;;;;;;8.00;4.10;;;8.00;99.90;;;;;;6209077;23;20502;-90
2022/01/18 11:42:54;;;;;;;22.37;2.23;;;8.00;99.90;;;;;;6209054;23;20244;-89
2022/01/18 11:45:26;;;;;;;14.23;3.57;;;7.80;99.90;;;;;;6185337;23;20176;-90
2022/01/18 11:48:17;;;;;;;2.93;2.73;;;7.80;99.90;;;;;;6208932;23;20276;-89
2022/01/18 11:50:46;;;;;;;1.33;1.33;;;7.70;99.90;;;;;;6209654;23;20284;-90
2022/01/18 11:53:45;;;;;;;15.60;3.13;;;7.80;99.90;;;;;;6209550;23;20198;-90
2022/01/18 11:56:35;;;;;;;3.17;1.77;;;7.90;99.90;;;;;;6209075;23;20201;-89
2022/01/18 11:59:19;;;;;;;34.50;4.80;;;7.60;99.90;;;;;;6191570;23;20284;-90
2022/01/18 12:01:56;;;;;;;4.07;2.30;;;7.80;99.90;;;;;;6209354;23;20194;-89
2022/01/18 12:07:10;;;;;;;6.80;2.33;;;7.90;99.90;;;;;;6210587;23;20193;-89
2022/01/18 12:09:41;;;;;;;1.80;1.70;;;7.90;99.90;;;;;;6209239;23;20165;-90
2022/01/18 12:12:41;;;;;;;3.57;1.77;;;7.70;99.90;;;;;;6185075;23;20170;-89
2022/01/18 12:15:17;;;;;;;2.57;2.37;;;7.70;99.90;;;;;;6209368;23;20186;-90
2022/01/18 12:17:55;;;;;;;4.20;3.17;;;7.70;99.90;;;;;;6210249;23;20241;-90
2022/01/18 12:20:54;;;;;;;5.80;1.97;;;7.60;99.90;;;;;;6209479;23;20232;-90
2022/01/18 12:23:31;;;;;;;4.70;1.83;;;7.60;99.90;;;;;;6208983;23;20201;-90
2022/01/18 12:34:40;;;;;;;2.33;2.00;;;7.80;99.90;;;;;;6210539;23;20194;-90
2022/01/18 12:37:13;;;;;;;2.00;1.60;;;7.80;99.90;;;;;;6209060;23;20201;-89
2022/01/18 12:45:09;;;;;;;2.87;2.60;;;7.80;99.90;;;;;;6210459;23;20173;-89
2022/01/18 12:47:52;;;;;;;15.70;3.90;;;7.80;99.90;;;;;;6208783;23;20336;-89
2022/01/18 12:50:24;;;;;;;3.00;2.90;;;7.80;99.90;;;;;;6187473;23;20201;-89
2022/01/18 12:53:00;;;;;;;8.70;4.40;;;7.90;99.90;;;;;;6208975;23;20944;-90
2022/01/18 12:55:42;;;;;;;11.73;2.93;;;7.80;99.90;;;;;;6208745;23;20189;-89
2022/01/18 12:58:48;;;;;;;3.40;1.47;;;7.90;99.90;;;;;;6208679;23;21063;-90
2022/01/18 13:01:24;;;;;;;6.00;2.23;;;8.00;99.90;;;;;;6128965;23;20280;-89
2022/01/18 13:03:52;;;;;;;4.10;2.63;;;8.10;99.90;;;;;;6184754;23;20557;-89
2022/01/18 13:06:20;;;;;;;2.37;2.03;;;8.10;99.90;;;;;;6184363;23;20572;-89
2022/01/18 13:08:55;;;;;;;9.17;5.23;;;7.90;99.90;;;;;;6208617;23;20516;-90
2022/01/18 13:11:32;;;;;;;1.60;1.50;;;7.80;99.90;;;;;;6208105;23;20209;-90
2022/01/18 13:14:10;;;;;;;2.40;1.33;;;7.70;99.90;;;;;;6208881;23;20202;-90
2022/01/18 13:27:28;;;;;;;4.47;1.70;;;7.90;99.90;;;;;;6208981;23;20162;-89
2022/01/18 13:30:32;;;;;;;5.20;3.37;;;7.90;99.90;;;;;;6209027;23;20185;-89
2022/01/18 13:33:00;;;;;;;9.57;3.40;;;7.80;99.90;;;;;;6170757;23;20617;-89
2022/01/18 13:35:31;;;;;;;1.80;1.70;;;7.70;99.90;;;;;;6183842;23;20204;-89
2022/01/18 13:38:00;;;;;;;2.50;1.57;;;7.70;99.90;;;;;;6208246;23;20217;-89
2022/01/18 13:40:29;;;;;;;0.80;0.80;;;7.70;99.90;;;;;;6183219;23;20209;-89
2022/01/18 13:43:09;;;;;;;3.20;2.57;;;7.60;99.90;;;;;;6208634;23;20605;-89
2022/01/18 13:45:38;;;;;;;2.97;2.57;;;7.40;99.90;;;;;;6208297;23;20154;-89
2022/01/18 13:48:08;;;;;;;3.23;2.70;;;7.40;99.90;;;;;;6209060;23;20193;-89
2022/01/18 13:50:50;;;;;;;3.90;3.50;;;7.40;99.90;;;;;;6183297;23;20209;-90
2022/01/18 13:53:27;;;;;;;2.90;2.60;;;7.60;99.90;;;;;;6183681;23;20209;-90
2022/01/18 13:56:01;;;;;;;2.97;2.17;;;7.60;99.90;;;;;;6208559;23;20272;-90
2022/01/18 13:58:33;;;;;;;5.00;1.73;;;7.50;99.90;;;;;;6208679;23;20201;-89
2022/01/18 14:01:09;;;;;;;2.90;2.40;;;7.20;99.90;;;;;;6208661;23;20200;-91
2022/01/18 14:03:39;;;;;;;7.13;2.97;;;7.30;99.90;;;;;;6208216;23;20162;-90
2022/01/18 14:06:06;;;;;;;7.57;5.13;;;7.30;99.90;;;;;;6208476;23;20162;-89
2022/01/18 14:08:35;;;;;;;6.10;5.43;;;7.40;99.90;;;;;;6183792;23;20198;-89
2022/01/18 14:11:07;;;;;;;7.80;4.50;;;7.30;99.90;;;;;;6208100;23;20217;-90
2022/01/18 14:13:36;;;;;;;4.83;4.33;;;7.30;99.90;;;;;;6208000;23;20202;-90
2022/01/18 14:16:24;;;;;;;3.53;2.97;;;7.30;99.90;;;;;;6183525;23;20198;-92
2022/01/18 14:19:09;;;;;;;7.50;3.47;;;7.20;99.90;;;;;;6208575;23;20190;-91
2022/01/18 14:21:38;;;;;;;4.83;2.97;;;7.20;99.90;;;;;;6208862;23;20686;-90
2022/01/18 14:24:20;;;;;;;6.10;4.00;;;7.20;99.90;;;;;;6184360;23;20154;-91
2022/01/18 14:26:56;;;;;;;5.10;3.10;;;7.20;99.90;;;;;;6208480;23;20252;-90
2022/01/18 14:29:42;;;;;;;3.00;2.70;;;7.30;99.90;;;;;;6208067;23;20205;-91
2022/01/18 14:32:20;;;;;;;3.33;3.13;;;7.10;99.90;;;;;;6208148;23;20655;-91
2022/01/18 14:34:51;;;;;;;5.50;4.13;;;7.10;99.90;;;;;;6208013;23;20209;-93
2022/01/18 14:37:18;;;;;;;8.87;3.57;;;7.00;99.90;;;;;;6185442;23;20202;-90
2022/01/18 14:40:00;;;;;;;6.67;5.73;;;6.90;99.90;;;;;;6208728;23;20154;-91
2022/01/18 14:42:39;;;;;;;5.40;3.80;;;7.00;99.90;;;;;;6208795;23;20209;-90
2022/01/18 14:47:38;;;;;;;4.73;3.57;;;7.00;99.90;;;;;;6209345;23;20580;-90
2022/01/18 14:50:09;;;;;;;3.97;3.43;;;6.80;99.90;;;;;;6182816;23;20273;-90
2022/01/18 14:52:35;;;;;;;7.90;3.67;;;6.70;99.90;;;;;;6209382;23;20272;-91
2022/01/18 14:55:00;;;;;;;11.33;5.80;;;6.80;99.90;;;;;;6183477;23;20210;-91
2022/01/18 14:57:27;;;;;;;3.33;1.93;;;6.80;99.90;;;;;;6158832;23;20201;-91